Terminal Aerodrome Forecast
Issued by NWS

Home | Current Version | Previous Version | Text Only | Print | Product List | Glossary On
Versions: 1 2 3 4 5 6 7 8 9 10 11 12 13 14 15
000
FTUS45 KRIW 070054 AAA
TAFRKS
TAF AMD
KRKS 070054Z 0701/0724 VRB10G15KT P6SM VCTS BKN060CB
      TEMPO 0701/0702 VRB15G30KT 2SM TSRA BKN030CB
     FM070400 11005KT P6SM VCSH SCT045 BKN080
     FM070800 VRB04KT P6SM SCT080
     FM071600 23006KT P6SM SCT070 SCT110
     FM072100 25009KT P6SM VCTS BKN060CB=

USA.gov is the U.S. government's official web portal to all federal, state and local government web resources and services.